sensor_id;sensor_type;location;lat;lon;timestamp;pressure;altitude;pressure_sealevel;temperature;humidity
24858;BME280;12935;50.782;6.074;2023-05-02T00:00:17;99828.31;;;10.63;100.00
24858;BME280;12935;50.782;6.074;2023-05-02T00:02:43;99831.41;;;10.58;100.00
24858;BME280;12935;50.782;6.074;2023-05-02T00:05:08;99829.47;;;10.62;100.00
24858;BME280;12935;50.782;6.074;2023-05-02T00:07:34;99822.47;;;10.68;100.00
24858;BME280;12935;50.782;6.074;2023-05-02T00:10:00;99836.91;;;10.72;100.00
24858;BME280;12935;50.782;6.074;2023-05-02T00:12:26;99843.91;;;10.59;100.00
24858;BME280;12935;50.782;6.074;2023-05-02T00:14:52;99842.31;;;10.50;100.00
24858;BME280;12935;50.782;6.074;2023-05-02T00:17:18;99844.25;;;10.46;100.00
24858;BME280;12935;50.782;6.074;2023-05-02T00:19:46;99845.41;;;10.45;100.00
24858;BME280;12935;50.782;6.074;2023-05-02T00:22:11;99838.44;;;10.51;100.00
24858;BME280;12935;50.782;6.074;2023-05-02T00:24:36;99830.97;;;10.45;100.00
24858;BME280;12935;50.782;6.074;2023-05-02T00:27:02;99846.97;;;10.43;100.00
24858;BME280;12935;50.782;6.074;2023-05-02T00:29:28;99840.72;;;10.42;100.00
24858;BME280;12935;50.782;6.074;2023-05-02T00:31:53;99845.41;;;10.42;100.00
24858;BME280;12935;50.782;6.074;2023-05-02T00:34:18;99839.88;;;10.31;100.00
24858;BME280;12935;50.782;6.074;2023-05-02T00:36:43;99850.03;;;10.31;100.00
24858;BME280;12935;50.782;6.074;2023-05-02T00:39:09;99847.72;;;10.36;100.00
24858;BME280;12935;50.782;6.074;2023-05-02T00:41:34;99851.22;;;10.33;100.00
24858;BME280;12935;50.782;6.074;2023-05-02T00:44:00;99844.19;;;10.32;100.00
24858;BME280;12935;50.782;6.074;2023-05-02T00:46:26;99857.09;;;10.35;100.00
24858;BME280;12935;50.782;6.074;2023-05-02T00:48:51;99852.78;;;10.34;100.00
24858;BME280;12935;50.782;6.074;2023-05-02T00:51:16;99859.78;;;10.28;100.00
24858;BME280;12935;50.782;6.074;2023-05-02T00:53:43;99865.22;;;10.25;100.00
24858;BME280;12935;50.782;6.074;2023-05-02T00:56:08;99869.50;;;10.22;100.00
24858;BME280;12935;50.782;6.074;2023-05-02T00:58:34;99877.28;;;10.24;100.00
24858;BME280;12935;50.782;6.074;2023-05-02T01:09:27;99886.47;;;9.98;100.00
24858;BME280;12935;50.782;6.074;2023-05-02T01:14:30;99881.34;;;9.85;100.00
24858;BME280;12935;50.782;6.074;2023-05-02T01:16:57;99872.34;;;9.85;100.00
24858;BME280;12935;50.782;6.074;2023-05-02T01:19:31;99877.84;;;9.89;100.00
24858;BME280;12935;50.782;6.074;2023-05-02T01:21:58;99876.59;;;9.75;100.00
24858;BME280;12935;50.782;6.074;2023-05-02T01:24:31;99882.47;;;9.81;100.00
24858;BME280;12935;50.782;6.074;2023-05-02T01:29:48;99880.47;;;9.74;100.00
24858;BME280;12935;50.782;6.074;2023-05-02T01:32:15;99882.03;;;9.75;100.00
24858;BME280;12935;50.782;6.074;2023-05-02T01:34:42;99893.38;;;9.81;100.00
24858;BME280;12935;50.782;6.074;2023-05-02T01:37:10;99897.25;;;9.80;100.00
24858;BME280;12935;50.782;6.074;2023-05-02T01:39:37;99892.59;;;9.80;100.00
24858;BME280;12935;50.782;6.074;2023-05-02T01:42:04;99898.44;;;9.79;100.00
24858;BME280;12935;50.782;6.074;2023-05-02T01:44:30;99909.34;;;9.79;100.00
24858;BME280;12935;50.782;6.074;2023-05-02T01:46:59;99906.19;;;9.77;100.00
24858;BME280;12935;50.782;6.074;2023-05-02T01:49:24;99914.38;;;9.77;100.00
24858;BME280;12935;50.782;6.074;2023-05-02T01:51:51;99917.84;;;9.70;100.00
24858;BME280;12935;50.782;6.074;2023-05-02T01:54:19;99910.47;;;9.71;100.00
24858;BME280;12935;50.782;6.074;2023-05-02T01:56:45;99910.50;;;9.74;100.00
24858;BME280;12935;50.782;6.074;2023-05-02T01:59:14;99903.88;;;9.75;100.00
24858;BME280;12935;50.782;6.074;2023-05-02T02:01:41;99906.97;;;9.77;100.00
24858;BME280;12935;50.782;6.074;2023-05-02T02:04:08;99915.59;;;9.79;100.00
24858;BME280;12935;50.782;6.074;2023-05-02T02:06:35;99917.16;;;9.80;100.00
24858;BME280;12935;50.782;6.074;2023-05-02T02:09:00;99915.59;;;9.79;100.00
24858;BME280;12935;50.782;6.074;2023-05-02T02:11:34;99919.88;;;9.80;100.00
24858;BME280;12935;50.782;6.074;2023-05-02T02:14:05;99921.03;;;9.79;100.00
24858;BME280;12935;50.782;6.074;2023-05-02T02:16:33;99922.56;;;9.77;100.00
24858;BME280;12935;50.782;6.074;2023-05-02T02:19:05;99915.59;;;9.79;100.00
24858;BME280;12935;50.782;6.074;2023-05-02T02:21:33;99918.69;;;9.78;100.00
24858;BME280;12935;50.782;6.074;2023-05-02T02:24:02;99917.94;;;9.81;100.00
24858;BME280;12935;50.782;6.074;2023-05-02T02:26:28;99923.34;;;9.77;100.00
24858;BME280;12935;50.782;6.074;2023-05-02T02:28:54;99913.22;;;9.78;100.00
24858;BME280;12935;50.782;6.074;2023-05-02T02:31:19;99920.25;;;9.79;100.00
24858;BME280;12935;50.782;6.074;2023-05-02T02:33:45;99922.59;;;9.80;100.00
24858;BME280;12935;50.782;6.074;2023-05-02T02:36:32;99919.47;;;9.78;100.00
24858;BME280;12935;50.782;6.074;2023-05-02T02:44:46;99920.00;;;9.95;100.00
24858;BME280;12935;50.782;6.074;2023-05-02T02:47:26;99921.56;;;9.96;100.00
24858;BME280;12935;50.782;6.074;2023-05-02T02:52:45;99928.66;;;10.04;100.00
24858;BME280;12935;50.782;6.074;2023-05-02T02:58:14;99920.84;;;10.02;100.00
24858;BME280;12935;50.782;6.074;2023-05-02T03:00:41;99929.81;;;10.03;100.00
24858;BME280;12935;50.782;6.074;2023-05-02T03:03:08;99930.63;;;10.10;100.00
24858;BME280;12935;50.782;6.074;2023-05-02T03:05:34;99927.13;;;10.10;100.00
24858;BME280;12935;50.782;6.074;2023-05-02T03:08:00;99925.22;;;10.17;100.00
24858;BME280;12935;50.782;6.074;2023-05-02T03:10:25;99929.19;;;10.20;100.00
24858;BME280;12935;50.782;6.074;2023-05-02T03:12:50;99931.06;;;10.16;100.00
24858;BME280;12935;50.782;6.074;2023-05-02T03:18:10;99933.41;;;10.14;100.00
24858;BME280;12935;50.782;6.074;2023-05-02T03:20:35;99930.63;;;10.10;100.00
24858;BME280;12935;50.782;6.074;2023-05-02T03:23:00;99931.44;;;10.14;100.00
24858;BME280;12935;50.782;6.074;2023-05-02T03:25:26;99931.13;;;10.19;100.00
24858;BME280;12935;50.782;6.074;2023-05-02T03:27:51;99934.22;;;10.18;100.00
24858;BME280;12935;50.782;6.074;2023-05-02T03:30:16;99935.34;;;10.13;100.00
24858;BME280;12935;50.782;6.074;2023-05-02T03:32:42;99939.22;;;10.12;100.00
24858;BME280;12935;50.782;6.074;2023-05-02T03:35:07;99944.31;;;10.14;100.00
24858;BME280;12935;50.782;6.074;2023-05-02T03:37:33;99947.78;;;10.11;100.00
24858;BME280;12935;50.782;6.074;2023-05-02T03:39:59;99945.88;;;10.15;100.00
24858;BME280;12935;50.782;6.074;2023-05-02T03:42:24;99944.69;;;10.12;100.00
24858;BME280;12935;50.782;6.074;2023-05-02T03:44:52;99954.44;;;10.13;100.00
24858;BME280;12935;50.782;6.074;2023-05-02T03:47:18;99962.69;;;10.17;100.00
24858;BME280;12935;50.782;6.074;2023-05-02T03:49:43;99967.34;;;10.16;100.00
24858;BME280;12935;50.782;6.074;2023-05-02T03:52:08;99963.44;;;10.14;100.00
24858;BME280;12935;50.782;6.074;2023-05-02T03:54:34;99969.59;;;10.07;100.00
24858;BME280;12935;50.782;6.074;2023-05-02T03:56:59;99968.47;;;10.12;100.00
24858;BME280;12935;50.782;6.074;2023-05-02T03:59:25;99969.63;;;10.11;100.00
24858;BME280;12935;50.782;6.074;2023-05-02T04:01:51;99974.72;;;10.12;100.00
24858;BME280;12935;50.782;6.074;2023-05-02T04:04:17;99978.22;;;10.09;100.00
24858;BME280;12935;50.782;6.074;2023-05-02T04:06:42;99975.47;;;10.09;100.00
24858;BME280;12935;50.782;6.074;2023-05-02T04:09:07;99985.28;;;10.14;100.00
24858;BME280;12935;50.782;6.074;2023-05-02T04:11:33;99982.53;;;10.14;100.00
24858;BME280;12935;50.782;6.074;2023-05-02T04:13:58;99987.59;;;10.12;100.00
24858;BME280;12935;50.782;6.074;2023-05-02T04:16:24;99988.78;;;10.14;100.00
24858;BME280;12935;50.782;6.074;2023-05-02T04:18:49;99987.19;;;10.06;100.00
24858;BME280;12935;50.782;6.074;2023-05-02T04:21:14;99991.84;;;10.06;100.00
24858;BME280;12935;50.782;6.074;2023-05-02T04:23:40;99991.84;;;10.06;100.00
24858;BME280;12935;50.782;6.074;2023-05-02T04:26:05;99991.44;;;10.07;100.00
24858;BME280;12935;50.782;6.074;2023-05-02T04:28:31;99992.63;;;10.06;100.00
24858;BME280;12935;50.782;6.074;2023-05-02T04:30:56;100005.88;;;10.04;100.00
24858;BME280;12935;50.782;6.074;2023-05-02T04:33:21;100003.56;;;10.06;100.00
24858;BME280;12935;50.782;6.074;2023-05-02T04:35:48;100009.44;;;10.12;100.00
24858;BME280;12935;50.782;6.074;2023-05-02T04:38:13;100011.41;;;10.15;100.00
24858;BME280;12935;50.782;6.074;2023-05-02T04:40:39;100012.59;;;10.14;100.00
24858;BME280;12935;50.782;6.074;2023-05-02T04:43:04;100016.94;;;10.18;100.00
24858;BME280;12935;50.782;6.074;2023-05-02T04:45:30;100013.41;;;10.18;100.00
24858;BME280;12935;50.782;6.074;2023-05-02T04:47:55;100026.00;;;10.30;100.00
24858;BME280;12935;50.782;6.074;2023-05-02T04:50:20;100025.22;;;10.29;100.00
24858;BME280;12935;50.782;6.074;2023-05-02T04:52:46;100025.19;;;10.26;100.00
24858;BME280;12935;50.782;6.074;2023-05-02T04:55:11;100030.22;;;10.24;100.00
24858;BME280;12935;50.782;6.074;2023-05-02T04:57:37;100035.34;;;10.29;100.00
24858;BME280;12935;50.782;6.074;2023-05-02T05:00:04;100035.31;;;10.25;100.00
24858;BME280;12935;50.782;6.074;2023-05-02T05:02:29;100036.47;;;10.24;100.00
24858;BME280;12935;50.782;6.074;2023-05-02T05:04:55;100042.72;;;10.21;100.00
24858;BME280;12935;50.782;6.074;2023-05-02T05:07:20;100038.72;;;10.15;100.00
24858;BME280;12935;50.782;6.074;2023-05-02T05:09:46;100050.06;;;10.17;100.00
24858;BME280;12935;50.782;6.074;2023-05-02T05:12:11;100044.09;;;10.04;100.00
24858;BME280;12935;50.782;6.074;2023-05-02T05:14:37;100048.38;;;10.02;100.00
24858;BME280;12935;50.782;6.074;2023-05-02T05:17:02;100062.69;;;9.92;100.00
24858;BME280;12935;50.782;6.074;2023-05-02T05:19:28;100064.25;;;9.93;100.00
24858;BME280;12935;50.782;6.074;2023-05-02T05:21:53;100069.34;;;9.94;100.00
24858;BME280;12935;50.782;6.074;2023-05-02T05:24:18;100071.28;;;9.94;100.00
24858;BME280;12935;50.782;6.074;2023-05-02T05:26:43;100069.72;;;9.93;100.00
24858;BME280;12935;50.782;6.074;2023-05-02T05:29:09;100084.53;;;9.92;100.00
24858;BME280;12935;50.782;6.074;2023-05-02T05:31:34;100081.41;;;9.93;100.00
24858;BME280;12935;50.782;6.074;2023-05-02T05:33:59;100086.03;;;9.85;100.00
24858;BME280;12935;50.782;6.074;2023-05-02T05:36:26;100092.28;;;9.86;100.00
24858;BME280;12935;50.782;6.074;2023-05-02T05:38:51;100094.63;;;9.88;100.00
24858;BME280;12935;50.782;6.074;2023-05-02T05:41:17;100094.22;;;9.85;100.00
24858;BME280;12935;50.782;6.074;2023-05-02T05:43:42;100103.34;;;10.00;100.00
24858;BME280;12935;50.782;6.074;2023-05-02T05:46:07;100107.94;;;9.93;100.00
24858;BME280;12935;50.782;6.074;2023-05-02T05:48:33;100105.25;;;9.96;100.00
24858;BME280;12935;50.782;6.074;2023-05-02T05:51:02;100110.94;;;10.17;100.00
24858;BME280;12935;50.782;6.074;2023-05-02T05:53:29;100117.63;;;10.20;100.00
24858;BME280;12935;50.782;6.074;2023-05-02T05:55:54;100116.63;;;10.02;100.00
24858;BME280;12935;50.782;6.074;2023-05-02T05:58:20;100121.41;;;10.12;100.00
24858;BME280;12935;50.782;6.074;2023-05-02T06:00:45;100124.41;;;10.00;100.00
24858;BME280;12935;50.782;6.074;2023-05-02T06:03:10;100128.19;;;9.92;100.00
24858;BME280;12935;50.782;6.074;2023-05-02T06:05:36;100126.34;;;9.99;100.00
24858;BME280;12935;50.782;6.074;2023-05-02T06:08:01;100140.66;;;9.89;100.00
24858;BME280;12935;50.782;6.074;2023-05-02T06:10:26;100139.47;;;9.87;100.00
24858;BME280;12935;50.782;6.074;2023-05-02T06:12:52;100141.78;;;9.84;100.00
24858;BME280;12935;50.782;6.074;2023-05-02T06:15:17;100147.56;;;9.79;100.00
24858;BME280;12935;50.782;6.074;2023-05-02T06:17:43;100142.09;;;9.79;100.00
24858;BME280;12935;50.782;6.074;2023-05-02T06:20:08;100137.06;;;9.81;100.00
24858;BME280;12935;50.782;6.074;2023-05-02T06:22:34;100147.97;;;9.81;100.00
24858;BME280;12935;50.782;6.074;2023-05-02T06:25:00;100155.25;;;9.70;100.00
24858;BME280;12935;50.782;6.074;2023-05-02T06:27:25;100150.53;;;9.67;100.00
24858;BME280;12935;50.782;6.074;2023-05-02T06:29:51;100160.41;;;9.75;100.00
24858;BME280;12935;50.782;6.074;2023-05-02T06:32:17;100163.88;;;9.76;100.00
24858;BME280;12935;50.782;6.074;2023-05-02T06:34:42;100158.44;;;9.76;100.00
24858;BME280;12935;50.782;6.074;2023-05-02T06:37:08;100165.56;;;9.84;100.00
24858;BME280;12935;50.782;6.074;2023-05-02T06:39:33;100167.44;;;9.80;100.00
24858;BME280;12935;50.782;6.074;2023-05-02T06:41:58;100171.34;;;9.79;100.00
24858;BME280;12935;50.782;6.074;2023-05-02T06:44:24;100175.56;;;9.73;100.00
24858;BME280;12935;50.782;6.074;2023-05-02T06:46:50;100175.94;;;9.71;100.00
24858;BME280;12935;50.782;6.074;2023-05-02T06:49:15;100184.06;;;9.68;100.00
24858;BME280;12935;50.782;6.074;2023-05-02T06:51:40;100189.91;;;9.66;100.00
24858;BME280;12935;50.782;6.074;2023-05-02T06:54:06;100190.69;;;9.67;100.00
24858;BME280;12935;50.782;6.074;2023-05-02T06:56:32;100188.78;;;9.71;100.00
24858;BME280;12935;50.782;6.074;2023-05-02T06:58:58;100190.78;;;9.74;100.00
24858;BME280;12935;50.782;6.074;2023-05-02T07:01:23;100196.63;;;9.72;100.00
24858;BME280;12935;50.782;6.074;2023-05-02T07:03:48;100206.41;;;9.77;100.00
24858;BME280;12935;50.782;6.074;2023-05-02T07:06:13;100204.63;;;9.92;100.00
24858;BME280;12935;50.782;6.074;2023-05-02T07:08:39;100203.94;;;9.98;100.00
24858;BME280;12935;50.782;6.074;2023-05-02T07:11:05;100202.91;;;10.10;100.00
24858;BME280;12935;50.782;6.074;2023-05-02T07:13:30;100207.38;;;10.22;100.00
24858;BME280;12935;50.782;6.074;2023-05-02T07:15:55;100212.16;;;10.32;100.00
24858;BME280;12935;50.782;6.074;2023-05-02T07:18:21;100220.69;;;10.27;100.00
24858;BME280;12935;50.782;6.074;2023-05-02T07:20:46;100219.47;;;10.24;100.00
24858;BME280;12935;50.782;6.074;2023-05-02T07:23:11;100220.78;;;10.34;100.00
24858;BME280;12935;50.782;6.074;2023-05-02T07:25:37;100233.38;;;10.45;100.00
24858;BME280;12935;50.782;6.074;2023-05-02T07:28:04;100226.19;;;10.30;100.00
24858;BME280;12935;50.782;6.074;2023-05-02T07:30:29;100231.97;;;10.22;100.00
24858;BME280;12935;50.782;6.074;2023-05-02T07:32:54;100231.16;;;10.21;100.00
24858;BME280;12935;50.782;6.074;2023-05-02T07:35:20;100237.00;;;10.19;100.00
24858;BME280;12935;50.782;6.074;2023-05-02T07:37:45;100239.34;;;10.21;100.00
24858;BME280;12935;50.782;6.074;2023-05-02T07:40:11;100242.56;;;10.30;100.00
24858;BME280;12935;50.782;6.074;2023-05-02T07:42:36;100245.97;;;10.20;100.00
24858;BME280;12935;50.782;6.074;2023-05-02T07:45:01;100239.00;;;10.23;100.00
24858;BME280;12935;50.782;6.074;2023-05-02T07:47:27;100243.41;;;10.34;100.00
24858;BME280;12935;50.782;6.074;2023-05-02T07:49:54;100250.78;;;10.67;100.00
24858;BME280;12935;50.782;6.074;2023-05-02T07:52:20;100254.44;;;10.82;100.00
24858;BME280;12935;50.782;6.074;2023-05-02T07:54:49;100259.06;;;10.78;100.00
24858;BME280;12935;50.782;6.074;2023-05-02T07:57:14;100264.22;;;10.83;100.00
24858;BME280;12935;50.782;6.074;2023-05-02T07:59:39;100267.16;;;11.08;100.00
24858;BME280;12935;50.782;6.074;2023-05-02T08:02:05;100268.91;;;11.34;100.00
24858;BME280;12935;50.782;6.074;2023-05-02T08:04:31;100268.13;;;11.30;100.00
24858;BME280;12935;50.782;6.074;2023-05-02T08:06:56;100271.94;;;11.21;100.00
24858;BME280;12935;50.782;6.074;2023-05-02T08:09:21;100276.19;;;11.12;100.00
24858;BME280;12935;50.782;6.074;2023-05-02T08:11:47;100281.91;;;10.96;100.00
24858;BME280;12935;50.782;6.074;2023-05-02T08:14:13;100280.75;;;10.97;100.00
24858;BME280;12935;50.782;6.074;2023-05-02T08:16:40;100288.44;;;10.88;100.00
24858;BME280;12935;50.782;6.074;2023-05-02T08:19:05;100283.72;;;10.81;100.00
24858;BME280;12935;50.782;6.074;2023-05-02T08:21:30;100286.50;;;10.88;100.00
24858;BME280;12935;50.782;6.074;2023-05-02T08:23:57;100276.84;;;10.98;100.00
24858;BME280;12935;50.782;6.074;2023-05-02T08:26:22;100294.44;;;11.01;100.00
24858;BME280;12935;50.782;6.074;2023-05-02T08:28:50;100290.91;;;10.97;100.00
24858;BME280;12935;50.782;6.074;2023-05-02T08:31:15;100290.56;;;11.05;100.00
24858;BME280;12935;50.782;6.074;2023-05-02T08:33:42;100291.03;;;11.11;100.00
24858;BME280;12935;50.782;6.074;2023-05-02T08:36:11;100297.03;;;11.27;100.00
24858;BME280;12935;50.782;6.074;2023-05-02T08:38:37;100299.53;;;11.46;100.00
24858;BME280;12935;50.782;6.074;2023-05-02T08:41:12;100290.25;;;11.62;100.00
24858;BME280;12935;50.782;6.074;2023-05-02T08:43:38;100296.94;;;11.71;100.00
24858;BME280;12935;50.782;6.074;2023-05-02T08:46:05;100301.53;;;11.56;100.00
24858;BME280;12935;50.782;6.074;2023-05-02T08:48:39;100303.13;;;11.57;100.00
24858;BME280;12935;50.782;6.074;2023-05-02T08:51:13;100313.56;;;12.00;100.00
24858;BME280;12935;50.782;6.074;2023-05-02T08:53:40;100321.41;;;12.01;100.00
24858;BME280;12935;50.782;6.074;2023-05-02T08:56:06;100310.53;;;12.12;100.00
24858;BME280;12935;50.782;6.074;2023-05-02T08:58:32;100319.31;;;12.60;100.00
24858;BME280;12935;50.782;6.074;2023-05-02T09:01:02;100316.97;;;12.62;100.00
24858;BME280;12935;50.782;6.074;2023-05-02T09:03:32;100323.66;;;12.68;100.00
24858;BME280;12935;50.782;6.074;2023-05-02T09:06:09;100335.13;;;13.06;100.00
24858;BME280;12935;50.782;6.074;2023-05-02T09:08:37;100331.06;;;12.60;100.00
24858;BME280;12935;50.782;6.074;2023-05-02T09:11:03;100336.88;;;12.45;100.00
24858;BME280;12935;50.782;6.074;2023-05-02T09:13:39;100345.00;;;12.20;100.00
24858;BME280;12935;50.782;6.074;2023-05-02T09:16:22;100338.22;;;12.00;100.00
24858;BME280;12935;50.782;6.074;2023-05-02T09:18:49;100350.72;;;11.93;100.00
24858;BME280;12935;50.782;6.074;2023-05-02T09:23:54;100348.34;;;11.88;100.00
24858;BME280;12935;50.782;6.074;2023-05-02T09:26:25;100353.09;;;11.95;100.00
24858;BME280;12935;50.782;6.074;2023-05-02T09:28:56;100357.34;;;11.89;100.00
24858;BME280;12935;50.782;6.074;2023-05-02T09:31:27;100351.69;;;11.71;100.00
24858;BME280;12935;50.782;6.074;2023-05-02T09:33:55;100357.50;;;11.63;100.00
24858;BME280;12935;50.782;6.074;2023-05-02T09:36:21;100360.69;;;11.72;100.00
24858;BME280;12935;50.782;6.074;2023-05-02T09:38:48;100370.47;;;11.69;100.00
24858;BME280;12935;50.782;6.074;2023-05-02T09:41:14;100370.31;;;11.96;100.00
24858;BME280;12935;50.782;6.074;2023-05-02T09:43:40;100369.59;;;12.09;100.00
24858;BME280;12935;50.782;6.074;2023-05-02T09:46:07;100369.50;;;11.99;100.00
24858;BME280;12935;50.782;6.074;2023-05-02T09:48:51;100372.34;;;12.13;100.00
24858;BME280;12935;50.782;6.074;2023-05-02T09:51:19;100371.72;;;12.41;100.00
24858;BME280;12935;50.782;6.074;2023-05-02T09:53:44;100376.78;;;12.35;100.00
24858;BME280;12935;50.782;6.074;2023-05-02T09:56:10;100384.38;;;12.67;100.00
24858;BME280;12935;50.782;6.074;2023-05-02T09:58:36;100380.25;;;13.40;100.00
24858;BME280;12935;50.782;6.074;2023-05-02T10:01:01;100390.47;;;13.47;100.00
24858;BME280;12935;50.782;6.074;2023-05-02T10:03:27;100384.97;;;13.36;100.00
24858;BME280;12935;50.782;6.074;2023-05-02T10:05:54;100385.25;;;12.95;100.00
24858;BME280;12935;50.782;6.074;2023-05-02T10:08:21;100385.09;;;12.60;100.00
24858;BME280;12935;50.782;6.074;2023-05-02T10:10:55;100396.91;;;12.68;100.00
24858;BME280;12935;50.782;6.074;2023-05-02T10:13:22;100399.69;;;12.78;100.00
24858;BME280;12935;50.782;6.074;2023-05-02T10:16:03;100399.66;;;12.68;100.00
24858;BME280;12935;50.782;6.074;2023-05-02T10:21:10;100398.88;;;12.71;100.00
24858;BME280;12935;50.782;6.074;2023-05-02T10:23:40;100395.03;;;12.93;100.00
24858;BME280;12935;50.782;6.074;2023-05-02T10:26:07;100393.09;;;12.97;100.00
24858;BME280;12935;50.782;6.074;2023-05-02T10:28:33;100396.19;;;12.85;100.00
24858;BME280;12935;50.782;6.074;2023-05-02T10:30:59;100400.03;;;12.66;100.00
24858;BME280;12935;50.782;6.074;2023-05-02T10:33:27;100397.34;;;12.80;100.00
24858;BME280;12935;50.782;6.074;2023-05-02T10:35:54;100393.94;;;13.22;100.00
24858;BME280;12935;50.782;6.074;2023-05-02T10:38:20;100394.38;;;13.49;96.24
24858;BME280;12935;50.782;6.074;2023-05-02T10:40:49;100399.47;;;13.40;98.25
24858;BME280;12935;50.782;6.074;2023-05-02T10:43:21;100393.91;;;13.12;95.00
24858;BME280;12935;50.782;6.074;2023-05-02T10:45:47;100385.28;;;13.06;96.51
24858;BME280;12935;50.782;6.074;2023-05-02T10:48:19;100392.72;;;13.02;100.00
24858;BME280;12935;50.782;6.074;2023-05-02T10:50:51;100399.38;;;13.05;100.00
24858;BME280;12935;50.782;6.074;2023-05-02T10:53:34;100395.91;;;13.15;100.00
24858;BME280;12935;50.782;6.074;2023-05-02T10:56:16;100392.03;;;13.37;100.00
24858;BME280;12935;50.782;6.074;2023-05-02T10:58:46;100402.25;;;13.79;100.00
24858;BME280;12935;50.782;6.074;2023-05-02T11:04:08;100385.84;;;16.02;89.07
24858;BME280;12935;50.782;6.074;2023-05-02T11:11:49;100392.56;;;14.80;88.94
24858;BME280;12935;50.782;6.074;2023-05-02T11:19:23;100392.41;;;13.92;94.92
24858;BME280;12935;50.782;6.074;2023-05-02T11:21:49;100402.19;;;14.25;92.94
24858;BME280;12935;50.782;6.074;2023-05-02T11:24:42;100387.38;;;14.96;91.50
24858;BME280;12935;50.782;6.074;2023-05-02T11:30:09;100391.50;;;14.59;90.95
24858;BME280;12935;50.782;6.074;2023-05-02T11:35:24;100387.34;;;15.65;85.84
24858;BME280;12935;50.782;6.074;2023-05-02T11:37:56;100404.44;;;15.39;83.39
24858;BME280;12935;50.782;6.074;2023-05-02T11:40:22;100395.69;;;14.92;84.27
24858;BME280;12935;50.782;6.074;2023-05-02T11:42:48;100402.84;;;14.68;85.65
24858;BME280;12935;50.782;6.074;2023-05-02T11:45:13;100401.50;;;15.08;86.38
24858;BME280;12935;50.782;6.074;2023-05-02T11:47:40;100397.28;;;14.86;82.63
24858;BME280;12935;50.782;6.074;2023-05-02T11:50:06;100400.44;;;14.81;85.77
24858;BME280;12935;50.782;6.074;2023-05-02T11:52:41;100390.38;;;15.23;82.05
24858;BME280;12935;50.782;6.074;2023-05-02T11:55:10;100402.28;;;16.50;79.42
24858;BME280;12935;50.782;6.074;2023-05-02T11:57:37;100401.50;;;17.14;72.31
24858;BME280;12935;50.782;6.074;2023-05-02T12:00:03;100396.44;;;16.78;70.11
24858;BME280;12935;50.782;6.074;2023-05-02T12:02:43;100400.91;;;17.53;65.43
24858;BME280;12935;50.782;6.074;2023-05-02T12:05:10;100398.84;;;17.03;65.06
24858;BME280;12935;50.782;6.074;2023-05-02T12:07:44;100405.28;;;16.97;69.43
24858;BME280;12935;50.782;6.074;2023-05-02T12:10:11;100405.13;;;16.05;70.20
24858;BME280;12935;50.782;6.074;2023-05-02T12:12:37;100414.41;;;15.15;77.77
24858;BME280;12935;50.782;6.074;2023-05-02T12:15:12;100424.88;;;14.65;78.12
24858;BME280;12935;50.782;6.074;2023-05-02T12:17:40;100424.56;;;14.17;80.71
24858;BME280;12935;50.782;6.074;2023-05-02T12:20:07;100432.03;;;14.20;80.27
24858;BME280;12935;50.782;6.074;2023-05-02T12:22:33;100431.59;;;14.39;80.86
24858;BME280;12935;50.782;6.074;2023-05-02T12:24:59;100428.44;;;14.51;81.60
24858;BME280;12935;50.782;6.074;2023-05-02T12:27:24;100435.25;;;15.20;81.69
24858;BME280;12935;50.782;6.074;2023-05-02T12:29:50;100437.22;;;15.16;77.33
24858;BME280;12935;50.782;6.074;2023-05-02T12:32:26;100435.63;;;15.22;74.36
24858;BME280;12935;50.782;6.074;2023-05-02T12:34:52;100436.50;;;15.04;71.93
24858;BME280;12935;50.782;6.074;2023-05-02T12:37:21;100436.53;;;14.97;72.50
24858;BME280;12935;50.782;6.074;2023-05-02T12:39:47;100444.91;;;14.69;75.98
24858;BME280;12935;50.782;6.074;2023-05-02T12:42:15;100449.25;;;14.56;72.43
24858;BME280;12935;50.782;6.074;2023-05-02T12:44:42;100441.03;;;14.34;73.67
24858;BME280;12935;50.782;6.074;2023-05-02T12:47:16;100450.41;;;14.69;74.87
24858;BME280;12935;50.782;6.074;2023-05-02T12:49:51;100446.63;;;15.84;75.75
24858;BME280;12935;50.782;6.074;2023-05-02T12:52:18;100434.03;;;17.30;70.73
24858;BME280;12935;50.782;6.074;2023-05-02T12:54:43;100437.13;;;17.59;66.44
24858;BME280;12935;50.782;6.074;2023-05-02T12:57:09;100441.88;;;18.08;61.27
24858;BME280;12935;50.782;6.074;2023-05-02T12:59:35;100458.53;;;16.60;62.97
24858;BME280;12935;50.782;6.074;2023-05-02T13:02:00;100452.16;;;15.84;67.00
24858;BME280;12935;50.782;6.074;2023-05-02T13:04:39;100460.72;;;15.34;67.30
24858;BME280;12935;50.782;6.074;2023-05-02T13:07:05;100460.50;;;15.04;69.14
24858;BME280;12935;50.782;6.074;2023-05-02T13:09:31;100450.81;;;15.48;66.95
24858;BME280;12935;50.782;6.074;2023-05-02T13:11:56;100455.56;;;16.81;62.99
24858;BME280;12935;50.782;6.074;2023-05-02T13:14:23;100458.19;;;18.03;55.64
24858;BME280;12935;50.782;6.074;2023-05-02T13:16:48;100467.59;;;16.98;59.53
24858;BME280;12935;50.782;6.074;2023-05-02T13:19:17;100460.91;;;16.58;62.14
24858;BME280;12935;50.782;6.074;2023-05-02T13:21:42;100468.34;;;16.23;65.06
24858;BME280;12935;50.782;6.074;2023-05-02T13:24:07;100467.09;;;15.24;66.21
24858;BME280;12935;50.782;6.074;2023-05-02T13:26:33;100465.41;;;14.29;71.04
24858;BME280;12935;50.782;6.074;2023-05-02T13:28:58;100472.44;;;14.51;73.05
24858;BME280;12935;50.782;6.074;2023-05-02T13:31:23;100474.97;;;15.19;70.95
24858;BME280;12935;50.782;6.074;2023-05-02T13:33:49;100464.47;;;16.55;63.21
24858;BME280;12935;50.782;6.074;2023-05-02T13:36:14;100470.63;;;16.32;61.42
24858;BME280;12935;50.782;6.074;2023-05-02T13:38:39;100470.44;;;17.78;56.82